Time;durP1;ratioP1;P1;durP2;ratioP2;P2;SDS_P1;SDS_P2;PMS_P1;PMS_P2;Temp;Humidity;BMP_temperature;BMP_pressure;BME280_temperature;BME280_humidity;BME280_pressure;Samples;Min_cycle;Max_cycle;Signal;HPM_P1;HPM_P2
2023/09/25 00:00:19;;;;;;;2.97;2.67;;;10.70;99.90;;;;;;5015626;28;20454;-74
2023/09/25 00:02:46;;;;;;;2.93;2.73;;;10.70;99.90;;;;;;5018887;28;20516;-74
2023/09/25 00:05:15;;;;;;;5.63;2.57;;;10.60;99.90;;;;;;5019323;28;20425;-73
2023/09/25 00:07:43;;;;;;;2.93;2.73;;;10.60;99.90;;;;;;5022304;28;21021;-73
2023/09/25 00:10:11;;;;;;;2.93;2.70;;;10.60;99.90;;;;;;5014555;28;20454;-74
2023/09/25 00:12:37;;;;;;;3.80;2.77;;;10.60;99.90;;;;;;5021044;28;20470;-74
2023/09/25 00:15:06;;;;;;;2.63;2.43;;;10.60;99.90;;;;;;5019392;28;20513;-74
2023/09/25 00:17:33;;;;;;;2.60;2.40;;;10.60;99.90;;;;;;5019778;28;20452;-73
2023/09/25 00:19:59;;;;;;;4.57;2.33;;;10.60;99.90;;;;;;5020309;28;20903;-73
2023/09/25 00:22:27;;;;;;;2.97;2.67;;;10.60;99.90;;;;;;5018862;28;20920;-73
2023/09/25 00:24:56;;;;;;;2.53;2.43;;;10.60;99.90;;;;;;5020749;28;20571;-73
2023/09/25 00:27:23;;;;;;;2.83;2.60;;;10.50;99.90;;;;;;5018787;28;20454;-73
2023/09/25 00:29:49;;;;;;;2.80;2.60;;;10.50;99.90;;;;;;5020772;28;20453;-74
2023/09/25 00:32:17;;;;;;;3.10;2.90;;;10.50;99.90;;;;;;5018168;28;20474;-74
2023/09/25 00:34:43;;;;;;;4.00;3.40;;;10.50;99.90;;;;;;5020830;28;20548;-74
2023/09/25 00:37:10;;;;;;;3.37;3.07;;;10.50;99.90;;;;;;5008986;28;20462;-74
2023/09/25 00:39:37;;;;;;;5.20;2.80;;;10.50;99.90;;;;;;5019948;28;20446;-74
2023/09/25 00:42:05;;;;;;;5.00;2.70;;;10.40;99.90;;;;;;5017470;28;20501;-73
2023/09/25 00:44:32;;;;;;;4.30;2.70;;;10.30;99.90;;;;;;5018848;28;20469;-73
2023/09/25 00:46:59;;;;;;;2.70;2.50;;;10.30;99.90;;;;;;5019414;28;20511;-74
2023/09/25 00:49:26;;;;;;;3.03;2.83;;;10.30;99.90;;;;;;5018266;28;20459;-74
2023/09/25 00:51:53;;;;;;;3.07;2.83;;;10.30;99.90;;;;;;5019612;28;20883;-73
2023/09/25 00:54:20;;;;;;;4.57;2.70;;;10.30;99.90;;;;;;5017751;28;20512;-74
2023/09/25 00:56:48;;;;;;;10.97;3.70;;;10.30;99.90;;;;;;5017775;28;20671;-74
2023/09/25 00:59:16;;;;;;;5.13;3.10;;;10.30;99.90;;;;;;5014516;28;20468;-73
2023/09/25 01:01:43;;;;;;;5.70;2.83;;;10.20;99.90;;;;;;5016318;28;20848;-73
2023/09/25 01:04:10;;;;;;;3.43;2.57;;;10.20;99.90;;;;;;5010516;28;20446;-73
2023/09/25 01:06:37;;;;;;;4.40;2.73;;;10.20;99.90;;;;;;5018904;28;20857;-73
2023/09/25 01:09:08;;;;;;;4.07;2.97;;;10.10;99.90;;;;;;5017406;28;20454;-73
2023/09/25 01:11:35;;;;;;;4.43;2.93;;;10.10;99.90;;;;;;5017302;28;20705;-73
2023/09/25 01:14:01;;;;;;;3.13;2.80;;;10.10;99.90;;;;;;5016979;28;20446;-73
2023/09/25 01:16:30;;;;;;;3.37;2.87;;;10.10;99.90;;;;;;5013842;28;20454;-74
2023/09/25 01:18:57;;;;;;;2.80;2.60;;;10.00;99.90;;;;;;5015340;28;20877;-74
2023/09/25 01:21:24;;;;;;;3.40;3.10;;;10.00;99.90;;;;;;5016630;28;20492;-73
2023/09/25 01:23:52;;;;;;;3.20;3.00;;;9.90;99.90;;;;;;5019241;28;20464;-74
2023/09/25 01:26:19;;;;;;;3.27;2.93;;;9.90;99.90;;;;;;5016592;28;20504;-74
2023/09/25 01:28:46;;;;;;;2.40;2.30;;;9.90;99.90;;;;;;5018710;28;20461;-74
2023/09/25 01:31:13;;;;;;;3.20;2.70;;;9.80;99.90;;;;;;5016278;28;20442;-74
2023/09/25 01:33:39;;;;;;;5.20;2.97;;;9.90;99.90;;;;;;5017944;28;20553;-74
2023/09/25 01:36:06;;;;;;;4.43;2.80;;;9.90;99.90;;;;;;5013648;28;20816;-74
2023/09/25 01:38:33;;;;;;;4.37;2.80;;;9.90;99.90;;;;;;5017605;28;20497;-74
2023/09/25 01:41:02;;;;;;;2.80;2.60;;;9.80;99.90;;;;;;5015641;28;20635;-75
2023/09/25 01:43:28;;;;;;;7.40;3.00;;;9.80;99.90;;;;;;5015475;28;20485;-74
2023/09/25 01:45:55;;;;;;;2.97;2.60;;;9.80;99.90;;;;;;5018039;28;20532;-74
2023/09/25 01:48:22;;;;;;;2.97;2.77;;;9.80;99.90;;;;;;5015707;28;20466;-74
2023/09/25 01:50:48;;;;;;;3.03;2.70;;;9.80;99.90;;;;;;5018129;28;20483;-74
2023/09/25 01:53:15;;;;;;;3.00;2.80;;;9.80;99.90;;;;;;5015937;28;20474;-74
2023/09/25 01:55:42;;;;;;;2.37;2.23;;;9.80;99.90;;;;;;5017837;28;20932;-74
2023/09/25 01:58:10;;;;;;;3.30;3.00;;;9.80;99.90;;;;;;5014572;28;20508;-74
2023/09/25 02:00:36;;;;;;;6.63;2.90;;;9.80;99.90;;;;;;5017207;28;20446;-73
2023/09/25 02:03:04;;;;;;;3.70;2.80;;;9.70;99.90;;;;;;5015475;28;20489;-74
2023/09/25 02:05:32;;;;;;;4.03;3.13;;;9.60;99.90;;;;;;5016545;28;20545;-74
2023/09/25 02:07:59;;;;;;;3.27;2.90;;;9.70;99.90;;;;;;5016469;28;20465;-73
2023/09/25 02:10:26;;;;;;;3.30;3.10;;;9.70;99.90;;;;;;5015024;28;20530;-74
2023/09/25 02:12:52;;;;;;;3.33;3.00;;;9.70;99.90;;;;;;5013876;28;20471;-74
2023/09/25 02:15:20;;;;;;;3.30;3.00;;;9.60;99.90;;;;;;5014001;28;20450;-74
2023/09/25 02:17:47;;;;;;;3.07;2.87;;;9.60;99.90;;;;;;5011009;28;20551;-73
2023/09/25 02:20:16;;;;;;;3.10;2.50;;;9.70;99.90;;;;;;5013707;28;20458;-73
2023/09/25 02:22:44;;;;;;;3.43;2.70;;;9.70;99.90;;;;;;5015811;28;20498;-74
2023/09/25 02:25:11;;;;;;;3.30;3.00;;;9.70;99.90;;;;;;5008180;28;20936;-73
2023/09/25 02:27:39;;;;;;;3.50;2.53;;;9.60;99.90;;;;;;5014802;28;20516;-74
2023/09/25 02:30:07;;;;;;;2.93;2.73;;;9.50;99.90;;;;;;5016301;28;20541;-74
2023/09/25 02:32:35;;;;;;;4.97;2.70;;;9.50;99.90;;;;;;5016261;28;20529;-74
2023/09/25 02:35:02;;;;;;;3.13;2.83;;;9.50;99.90;;;;;;5017313;28;20460;-74
2023/09/25 02:37:30;;;;;;;3.47;3.17;;;9.50;99.90;;;;;;5017249;28;20450;-74
2023/09/25 02:39:57;;;;;;;3.50;3.20;;;9.50;99.90;;;;;;5018275;28;20442;-75
2023/09/25 02:42:23;;;;;;;3.03;2.73;;;9.40;99.90;;;;;;5013412;28;20494;-74
2023/09/25 02:44:51;;;;;;;4.00;2.97;;;9.30;99.90;;;;;;5018449;28;20643;-75
2023/09/25 02:47:18;;;;;;;3.87;3.27;;;9.30;99.90;;;;;;5016982;28;20454;-75
2023/09/25 02:49:46;;;;;;;3.40;3.07;;;9.20;99.90;;;;;;5016330;28;20462;-74
2023/09/25 02:52:12;;;;;;;4.40;3.60;;;9.20;99.90;;;;;;5015593;28;20528;-74
2023/09/25 02:54:39;;;;;;;3.70;3.17;;;9.20;99.90;;;;;;5017010;28;20559;-74
2023/09/25 02:57:05;;;;;;;3.10;2.80;;;9.20;99.90;;;;;;5016015;28;20529;-75
2023/09/25 02:59:32;;;;;;;4.17;3.10;;;9.20;99.90;;;;;;5016570;28;20447;-75
2023/09/25 03:01:59;;;;;;;4.73;3.40;;;9.20;99.90;;;;;;5017249;28;20527;-74
2023/09/25 03:04:25;;;;;;;4.07;3.13;;;9.20;99.90;;;;;;5015225;28;20484;-74
2023/09/25 03:06:53;;;;;;;3.47;3.17;;;9.20;99.90;;;;;;5018120;28;21002;-74
2023/09/25 03:09:20;;;;;;;8.57;3.30;;;9.20;99.90;;;;;;5015474;28;20487;-74
2023/09/25 03:11:47;;;;;;;4.37;3.03;;;9.10;99.90;;;;;;4979376;28;1025543;-74
2023/09/25 03:14:13;;;;;;;7.33;3.07;;;9.10;99.90;;;;;;5016804;28;20665;-75
2023/09/25 03:16:40;;;;;;;3.40;3.10;;;9.10;99.90;;;;;;5017429;28;20956;-74
2023/09/25 03:19:07;;;;;;;3.23;2.93;;;9.10;99.90;;;;;;5012790;28;20733;-74
2023/09/25 03:21:34;;;;;;;4.83;3.50;;;9.10;99.90;;;;;;5016114;28;20454;-74
2023/09/25 03:24:02;;;;;;;3.57;3.27;;;9.10;99.90;;;;;;5017486;28;20525;-74
2023/09/25 03:26:28;;;;;;;3.83;3.20;;;9.00;99.90;;;;;;5016551;28;20512;-74
2023/09/25 03:28:55;;;;;;;3.63;3.33;;;9.00;99.90;;;;;;5016322;28;20494;-74
2023/09/25 03:31:22;;;;;;;5.07;3.17;;;9.00;99.90;;;;;;5015503;28;20439;-73
2023/09/25 03:33:48;;;;;;;3.10;2.90;;;8.90;99.90;;;;;;5017233;28;20485;-74
2023/09/25 03:36:15;;;;;;;2.97;2.77;;;8.90;99.90;;;;;;5015790;28;20807;-73
2023/09/25 03:38:42;;;;;;;3.93;3.27;;;8.90;99.90;;;;;;5017087;28;21006;-73
2023/09/25 03:41:10;;;;;;;3.23;3.03;;;8.90;99.90;;;;;;5014927;28;20512;-73
2023/09/25 03:43:36;;;;;;;4.67;3.50;;;8.80;99.90;;;;;;5013505;28;21023;-73
2023/09/25 03:46:03;;;;;;;3.40;3.07;;;8.80;99.90;;;;;;5015866;28;20446;-74
2023/09/25 03:48:30;;;;;;;3.40;3.10;;;8.80;99.90;;;;;;5015369;28;20454;-73
2023/09/25 03:50:57;;;;;;;3.43;2.93;;;8.80;99.90;;;;;;5016035;28;20481;-73
2023/09/25 03:53:24;;;;;;;3.00;2.80;;;8.80;99.90;;;;;;5015049;28;20987;-73
2023/09/25 03:55:50;;;;;;;3.70;3.30;;;8.70;99.90;;;;;;5016371;28;20861;-73
2023/09/25 03:58:18;;;;;;;3.43;3.13;;;8.70;99.90;;;;;;5014721;28;21205;-73
2023/09/25 04:00:45;;;;;;;4.60;3.60;;;8.70;99.90;;;;;;5015542;28;20812;-73
2023/09/25 04:03:12;;;;;;;3.50;3.20;;;8.80;99.90;;;;;;5014787;28;20855;-73
2023/09/25 04:05:39;;;;;;;3.27;3.07;;;8.70;99.90;;;;;;5012886;28;20536;-73
2023/09/25 04:08:06;;;;;;;4.00;3.30;;;8.70;99.90;;;;;;5013844;28;20446;-73
2023/09/25 04:10:32;;;;;;;5.43;3.73;;;8.70;99.90;;;;;;5014246;28;20500;-74
2023/09/25 04:12:59;;;;;;;3.57;3.27;;;8.70;99.90;;;;;;5014753;28;20469;-74
2023/09/25 04:15:27;;;;;;;3.90;3.60;;;8.60;99.90;;;;;;5013541;28;20462;-74
2023/09/25 04:17:54;;;;;;;3.60;3.30;;;8.60;99.90;;;;;;5014747;28;20930;-74
2023/09/25 04:20:24;;;;;;;3.90;3.53;;;8.60;99.90;;;;;;5013758;28;20451;-74
2023/09/25 04:22:51;;;;;;;4.17;3.37;;;8.60;99.90;;;;;;5014465;28;20493;-74
2023/09/25 04:25:19;;;;;;;7.57;2.90;;;8.50;99.90;;;;;;5013642;28;20541;-74
2023/09/25 04:27:46;;;;;;;4.30;3.20;;;8.50;99.90;;;;;;5014468;28;20541;-74
2023/09/25 04:30:14;;;;;;;4.47;3.63;;;8.50;99.90;;;;;;5013082;28;20462;-74
2023/09/25 04:32:43;;;;;;;5.73;4.10;;;8.40;99.90;;;;;;5013327;28;21004;-74
2023/09/25 04:35:12;;;;;;;4.50;4.20;;;8.40;99.90;;;;;;5006315;28;20442;-74
2023/09/25 04:37:38;;;;;;;4.90;3.60;;;8.40;99.90;;;;;;5013373;28;20452;-74
2023/09/25 04:40:13;;;;;;;6.23;4.23;;;8.40;99.90;;;;;;5013493;28;20469;-74
2023/09/25 04:42:40;;;;;;;4.53;3.67;;;8.40;99.90;;;;;;5010233;28;21049;-74
2023/09/25 04:45:12;;;;;;;4.13;3.73;;;8.30;99.90;;;;;;5013597;28;20945;-74
2023/09/25 04:47:38;;;;;;;5.80;3.30;;;8.30;99.90;;;;;;5012262;28;20468;-74
2023/09/25 04:50:08;;;;;;;3.90;3.37;;;8.30;99.90;;;;;;5013688;28;20462;-76
2023/09/25 04:52:35;;;;;;;5.43;3.60;;;8.30;99.90;;;;;;5012063;28;20532;-73
2023/09/25 04:55:04;;;;;;;4.33;4.00;;;8.30;99.90;;;;;;5009730;28;20508;-72
2023/09/25 04:57:31;;;;;;;5.13;3.67;;;8.30;99.90;;;;;;5008054;28;20513;-70
2023/09/25 04:59:58;;;;;;;4.83;4.43;;;8.40;99.90;;;;;;5013003;28;20489;-70
2023/09/25 05:02:24;;;;;;;3.93;3.57;;;8.40;99.90;;;;;;5013002;28;20540;-71
2023/09/25 05:04:51;;;;;;;3.73;3.43;;;8.30;99.90;;;;;;5012395;28;20446;-71
2023/09/25 05:07:20;;;;;;;4.83;4.13;;;8.30;99.90;;;;;;5011646;28;20516;-71
2023/09/25 05:09:46;;;;;;;3.77;3.47;;;8.30;99.90;;;;;;5012595;28;20451;-70
2023/09/25 05:12:14;;;;;;;3.73;3.43;;;8.20;99.90;;;;;;5014057;28;20478;-70
2023/09/25 05:14:41;;;;;;;3.70;3.40;;;8.20;99.90;;;;;;5012049;28;20466;-70
2023/09/25 05:17:07;;;;;;;3.90;3.60;;;8.20;99.90;;;;;;5008257;28;20475;-70
2023/09/25 05:19:34;;;;;;;3.73;3.43;;;8.20;99.90;;;;;;5012052;28;20451;-71
2023/09/25 05:22:01;;;;;;;4.23;3.47;;;8.20;99.90;;;;;;5011963;28;20478;-71
2023/09/25 05:24:29;;;;;;;3.30;3.00;;;8.10;99.90;;;;;;5012961;28;20497;-72
2023/09/25 05:26:55;;;;;;;3.93;3.63;;;8.10;99.90;;;;;;5012064;28;20879;-73
2023/09/25 05:29:22;;;;;;;6.13;4.03;;;8.10;99.90;;;;;;5011721;28;20869;-72
2023/09/25 05:31:48;;;;;;;3.60;3.30;;;8.00;99.90;;;;;;5009684;28;20478;-72
2023/09/25 05:34:15;;;;;;;3.87;3.57;;;8.00;99.90;;;;;;5003209;28;20524;-71
2023/09/25 05:36:42;;;;;;;4.00;3.63;;;8.00;99.90;;;;;;5010763;28;20826;-74
2023/09/25 05:39:10;;;;;;;3.93;3.63;;;8.00;99.90;;;;;;5010383;28;20450;-73
2023/09/25 05:41:38;;;;;;;3.80;3.43;;;8.00;99.90;;;;;;5010808;28;20450;-73
2023/09/25 05:44:06;;;;;;;8.00;3.83;;;8.00;99.90;;;;;;5006875;28;20502;-73
2023/09/25 05:46:32;;;;;;;5.30;4.13;;;8.10;99.90;;;;;;5010659;28;20451;-73
2023/09/25 05:48:59;;;;;;;6.17;3.83;;;8.20;99.90;;;;;;5010647;28;20925;-74
2023/09/25 05:51:26;;;;;;;4.10;3.70;;;8.30;99.90;;;;;;5010145;28;20465;-73
2023/09/25 05:53:53;;;;;;;5.23;4.10;;;8.30;99.90;;;;;;5011082;28;20952;-73
2023/09/25 05:56:19;;;;;;;4.17;3.63;;;8.40;99.90;;;;;;5010273;28;20508;-73
2023/09/25 05:58:47;;;;;;;7.83;4.03;;;8.50;99.90;;;;;;5010389;28;20500;-73
2023/09/25 06:01:14;;;;;;;3.90;3.60;;;8.80;99.90;;;;;;5008326;28;20497;-74
2023/09/25 06:03:41;;;;;;;4.00;3.60;;;9.30;99.90;;;;;;5009004;28;20724;-73
2023/09/25 06:06:08;;;;;;;3.23;3.03;;;9.80;99.90;;;;;;5023701;28;20858;-73
2023/09/25 06:08:35;;;;;;;4.80;3.90;;;10.40;99.90;;;;;;5032796;28;20454;-73
2023/09/25 06:11:02;;;;;;;5.10;3.27;;;11.00;99.90;;;;;;5025964;28;20588;-73
2023/09/25 06:13:30;;;;;;;6.20;3.10;;;11.50;99.90;;;;;;5033398;28;20463;-73
2023/09/25 06:15:58;;;;;;;3.53;2.47;;;12.00;99.90;;;;;;5030993;28;20492;-73
2023/09/25 06:18:24;;;;;;;5.10;3.17;;;12.50;99.90;;;;;;5033679;28;20865;-73
2023/09/25 06:20:51;;;;;;;3.00;2.80;;;12.90;99.90;;;;;;5033515;28;20456;-73
2023/09/25 06:23:18;;;;;;;2.80;2.57;;;13.30;99.90;;;;;;5033162;28;20576;-73
2023/09/25 06:25:45;;;;;;;4.20;2.70;;;13.90;99.90;;;;;;5020232;28;20506;-73
2023/09/25 06:28:14;;;;;;;6.63;3.60;;;14.40;99.90;;;;;;5025640;28;20456;-73
2023/09/25 06:30:41;;;;;;;3.80;3.07;;;14.70;99.90;;;;;;5033375;28;20455;-73
2023/09/25 06:33:09;;;;;;;5.00;2.90;;;15.00;99.90;;;;;;5032716;28;20544;-73
2023/09/25 06:35:36;;;;;;;5.43;3.47;;;15.30;99.90;;;;;;5033621;28;20855;-73
2023/09/25 06:38:03;;;;;;;10.50;3.27;;;15.50;99.90;;;;;;5032246;28;20503;-73
2023/09/25 06:40:29;;;;;;;6.57;3.50;;;15.80;99.90;;;;;;5014056;28;20852;-72
2023/09/25 06:42:56;;;;;;;7.20;3.87;;;16.00;99.90;;;;;;5018751;28;20453;-72
2023/09/25 06:45:23;;;;;;;7.23;3.40;;;16.10;99.90;;;;;;5032936;28;20478;-72
2023/09/25 06:47:49;;;;;;;11.93;4.63;;;16.40;99.90;;;;;;5029446;28;20445;-72
2023/09/25 06:50:18;;;;;;;4.73;3.40;;;16.70;99.90;;;;;;5027314;28;20507;-72
2023/09/25 06:52:44;;;;;;;4.07;2.40;;;17.00;99.90;;;;;;5028881;28;20530;-72
2023/09/25 06:55:11;;;;;;;2.70;2.50;;;17.30;99.90;;;;;;5025650;28;20458;-72
2023/09/25 06:57:37;;;;;;;5.63;3.20;;;17.60;99.90;;;;;;5030816;28;20457;-72
2023/09/25 07:00:05;;;;;;;3.50;2.80;;;17.80;99.90;;;;;;5028489;28;20450;-72
2023/09/25 07:02:32;;;;;;;2.87;2.60;;;18.10;99.90;;;;;;5028693;28;20469;-72
2023/09/25 07:04:59;;;;;;;9.10;3.53;;;18.40;99.90;;;;;;5029841;28;20880;-72
2023/09/25 07:07:27;;;;;;;6.30;3.30;;;18.80;99.90;;;;;;5018501;28;20473;-71
2023/09/25 07:09:54;;;;;;;7.80;4.07;;;19.00;99.90;;;;;;5022610;28;20541;-71
2023/09/25 07:12:20;;;;;;;3.10;2.90;;;19.00;99.90;;;;;;5031404;28;20452;-70
2023/09/25 07:14:53;;;;;;;3.00;2.80;;;18.90;99.90;;;;;;5030574;28;20931;-71
2023/09/25 07:17:19;;;;;;;3.47;2.70;;;18.70;99.90;;;;;;5020049;28;20866;-71
2023/09/25 07:19:50;;;;;;;3.50;3.20;;;18.60;99.90;;;;;;5024816;28;20437;-71
2023/09/25 07:22:17;;;;;;;3.93;2.90;;;18.60;99.90;;;;;;5024451;28;20531;-71
2023/09/25 07:24:45;;;;;;;3.40;3.10;;;18.70;99.90;;;;;;5024927;28;20568;-71
2023/09/25 07:27:11;;;;;;;4.07;3.10;;;18.80;99.90;;;;;;5021803;28;20812;-70
2023/09/25 07:29:38;;;;;;;5.67;3.33;;;18.90;99.90;;;;;;5030408;28;21025;-70
2023/09/25 07:32:05;;;;;;;5.47;2.90;;;18.80;99.90;;;;;;5021782;28;20489;-70
2023/09/25 07:34:32;;;;;;;3.03;2.47;;;18.80;99.90;;;;;;5009620;28;20877;-71
2023/09/25 07:37:00;;;;;;;4.60;2.50;;;18.80;99.90;;;;;;5028070;28;20507;-70
2023/09/25 07:39:27;;;;;;;3.17;2.87;;;18.80;99.90;;;;;;5026477;28;20528;-71
2023/09/25 07:41:55;;;;;;;4.17;3.30;;;18.70;99.90;;;;;;5027010;28;20548;-71
2023/09/25 07:44:26;;;;;;;2.87;2.50;;;18.80;99.90;;;;;;5026582;28;20496;-71
2023/09/25 07:46:53;;;;;;;3.13;2.60;;;19.00;99.90;;;;;;5029035;28;20474;-70
2023/09/25 07:49:20;;;;;;;2.67;2.47;;;18.80;99.90;;;;;;5024348;28;20462;-70
2023/09/25 07:51:46;;;;;;;2.83;2.60;;;18.90;99.90;;;;;;5029283;28;20477;-71
2023/09/25 07:54:14;;;;;;;4.50;2.60;;;18.80;99.90;;;;;;5029335;28;20869;-71
2023/09/25 07:56:42;;;;;;;2.90;2.70;;;18.80;99.90;;;;;;5030020;28;20484;-71
2023/09/25 07:59:10;;;;;;;3.10;2.70;;;18.70;99.90;;;;;;5028729;28;20454;-71
2023/09/25 08:01:39;;;;;;;3.77;2.30;;;18.60;99.90;;;;;;5029852;28;20454;-71
2023/09/25 08:04:06;;;;;;;2.60;2.40;;;18.50;99.90;;;;;;5018925;28;20698;-71
2023/09/25 08:06:32;;;;;;;3.80;2.20;;;18.30;99.90;;;;;;5013363;28;20458;-71
2023/09/25 08:08:59;;;;;;;4.43;2.57;;;18.30;99.90;;;;;;5013944;28;20458;-71
2023/09/25 08:11:26;;;;;;;2.80;2.60;;;18.20;99.90;;;;;;5010809;28;20465;-71
2023/09/25 08:13:54;;;;;;;6.30;3.07;;;18.10;99.90;;;;;;5013824;28;20482;-71
2023/09/25 08:16:23;;;;;;;2.77;2.57;;;18.30;99.90;;;;;;5013726;28;21013;-70
2023/09/25 08:18:50;;;;;;;3.70;2.90;;;18.20;99.90;;;;;;5010893;28;20450;-71
2023/09/25 08:21:17;;;;;;;3.10;2.80;;;18.30;99.90;;;;;;5019038;28;20449;-71
2023/09/25 08:23:43;;;;;;;6.70;3.20;;;18.40;99.90;;;;;;5014764;28;20477;-71
2023/09/25 08:26:10;;;;;;;3.97;2.80;;;18.30;99.90;;;;;;5027506;28;20524;-71
2023/09/25 08:28:37;;;;;;;4.23;3.03;;;18.30;99.90;;;;;;5028645;28;20507;-71
2023/09/25 08:31:04;;;;;;;6.73;3.23;;;18.40;99.90;;;;;;5026638;28;20572;-71
2023/09/25 08:33:32;;;;;;;3.17;2.73;;;18.60;99.90;;;;;;5025601;28;21058;-71
2023/09/25 08:35:59;;;;;;;2.77;2.57;;;18.70;99.90;;;;;;5026866;28;20428;-71
2023/09/25 08:38:25;;;;;;;2.70;2.50;;;18.80;99.90;;;;;;5028597;28;20450;-71
2023/09/25 08:40:52;;;;;;;3.13;2.67;;;18.70;99.90;;;;;;5027023;28;20457;-71
2023/09/25 08:43:21;;;;;;;3.03;2.83;;;18.70;99.90;;;;;;5023862;28;20519;-71
2023/09/25 08:45:50;;;;;;;3.10;2.70;;;18.50;99.90;;;;;;5027528;28;20876;-71
2023/09/25 08:48:18;;;;;;;3.60;2.63;;;18.60;99.90;;;;;;5027251;28;21006;-71
2023/09/25 08:50:46;;;;;;;3.43;3.03;;;18.60;99.90;;;;;;5018292;28;20464;-70
2023/09/25 08:53:13;;;;;;;3.20;2.90;;;18.70;99.90;;;;;;5025433;28;20516;-71
2023/09/25 08:55:40;;;;;;;3.80;2.73;;;18.50;99.90;;;;;;5027835;28;20495;-71
2023/09/25 08:58:09;;;;;;;3.20;2.90;;;18.60;99.90;;;;;;5025985;28;20446;-71
2023/09/25 09:00:35;;;;;;;3.17;2.87;;;18.50;99.90;;;;;;5029368;28;20495;-71
2023/09/25 09:03:03;;;;;;;3.47;3.13;;;18.60;99.90;;;;;;5024312;28;20466;-71
2023/09/25 09:05:29;;;;;;;2.80;2.60;;;18.80;99.90;;;;;;5026169;28;20555;-70
2023/09/25 09:08:00;;;;;;;3.57;2.97;;;18.90;99.90;;;;;;5026669;28;20468;-71
2023/09/25 09:10:31;;;;;;;4.07;2.90;;;19.10;99.90;;;;;;5023045;28;21126;-70
2023/09/25 09:12:58;;;;;;;2.97;2.77;;;19.40;99.90;;;;;;5025997;28;20556;-71
2023/09/25 09:15:28;;;;;;;2.97;2.77;;;19.20;99.90;;;;;;5015864;28;20437;-71
2023/09/25 09:17:55;;;;;;;3.60;3.00;;;19.20;99.90;;;;;;5020855;28;20454;-71
2023/09/25 09:20:23;;;;;;;3.30;3.00;;;19.30;99.90;;;;;;5022371;28;20500;-70
2023/09/25 09:22:51;;;;;;;3.73;2.90;;;19.50;99.90;;;;;;5018711;28;20544;-70
2023/09/25 09:25:20;;;;;;;4.00;3.17;;;19.80;99.90;;;;;;5018264;28;20485;-71
2023/09/25 09:27:47;;;;;;;3.77;3.37;;;19.80;99.90;;;;;;5022646;28;20473;-71
2023/09/25 09:30:21;;;;;;;4.57;2.70;;;20.00;99.90;;;;;;5024840;28;20478;-71
2023/09/25 09:32:49;;;;;;;5.60;3.03;;;20.20;99.90;;;;;;5021205;28;20569;-71
2023/09/25 09:35:19;;;;;;;3.13;2.83;;;20.10;99.90;;;;;;5021396;28;20546;-71
2023/09/25 09:37:48;;;;;;;7.13;2.70;;;20.00;99.90;;;;;;5021497;28;20503;-71
2023/09/25 09:40:17;;;;;;;5.23;3.00;;;20.20;99.90;;;;;;5027875;28;20454;-70
2023/09/25 09:42:48;;;;;;;4.80;3.03;;;19.80;99.90;;;;;;5025679;28;20924;-71
2023/09/25 09:45:15;;;;;;;4.50;2.43;;;19.70;99.90;;;;;;5024983;28;20498;-71
2023/09/25 09:47:43;;;;;;;3.10;2.80;;;20.00;99.90;;;;;;5017064;28;20461;-71
2023/09/25 09:50:11;;;;;;;6.33;3.13;;;20.20;99.90;;;;;;5025683;28;20446;-71
2023/09/25 09:52:39;;;;;;;3.00;2.40;;;20.20;99.90;;;;;;5023384;28;20563;-70
2023/09/25 09:55:07;;;;;;;5.63;3.10;;;19.80;99.90;;;;;;5026505;28;20544;-71
2023/09/25 09:57:34;;;;;;;5.90;3.17;;;19.80;99.90;;;;;;5029173;28;20982;-71
2023/09/25 10:00:05;;;;;;;2.90;2.70;;;19.50;99.90;;;;;;5027127;28;20511;-70
2023/09/25 10:02:32;;;;;;;4.63;3.30;;;19.50;99.90;;;;;;5024642;28;20555;-70
2023/09/25 10:04:59;;;;;;;5.87;3.30;;;19.70;99.90;;;;;;5027383;28;20612;-71
2023/09/25 10:07:27;;;;;;;4.30;3.00;;;19.80;99.90;;;;;;5022388;28;20503;-71
2023/09/25 10:09:59;;;;;;;4.17;2.70;;;20.00;99.90;;;;;;5024225;28;21032;-72
2023/09/25 10:12:38;;;;;;;4.00;2.83;;;20.20;99.90;;;;;;5031278;28;20469;-72
2023/09/25 10:15:09;;;;;;;4.30;2.90;;;20.80;99.90;;;;;;5027688;28;20460;-70
2023/09/25 10:17:41;;;;;;;3.07;2.83;;;21.00;99.90;;;;;;5020450;28;21013;-70
2023/09/25 10:20:28;;;;;;;3.50;2.90;;;21.20;99.90;;;;;;5025806;28;20948;-70
2023/09/25 10:22:58;;;;;;;3.43;3.00;;;21.40;99.90;;;;;;5022769;28;20572;-70
2023/09/25 10:25:25;;;;;;;3.13;2.83;;;21.00;99.90;;;;;;5027857;28;20497;-70
2023/09/25 10:27:53;;;;;;;5.77;3.00;;;20.70;99.90;;;;;;5027753;28;20532;-70
2023/09/25 10:30:23;;;;;;;4.33;2.80;;;20.80;99.90;;;;;;5021579;28;21026;-71
2023/09/25 10:32:51;;;;;;;3.90;3.03;;;20.60;99.90;;;;;;5024406;28;20462;-69
2023/09/25 10:35:40;;;;;;;3.90;2.90;;;20.30;99.90;;;;;;5025652;28;20454;-70
2023/09/25 10:38:19;;;;;;;3.80;2.87;;;20.40;99.90;;;;;;5024537;28;20477;-70
2023/09/25 10:40:49;;;;;;;2.90;2.70;;;20.50;99.90;;;;;;5027572;28;20457;-70
2023/09/25 10:43:17;;;;;;;3.50;2.50;;;20.60;99.90;;;;;;5021883;28;20505;-70
2023/09/25 10:45:45;;;;;;;4.20;2.67;;;20.80;99.90;;;;;;5027614;28;20493;-70
2023/09/25 10:48:12;;;;;;;3.90;3.00;;;20.90;99.90;;;;;;5021571;28;20492;-70
2023/09/25 10:50:40;;;;;;;3.63;3.30;;;21.10;99.90;;;;;;5015665;28;20468;-70
2023/09/25 10:53:07;;;;;;;3.27;2.80;;;21.20;99.90;;;;;;5022645;28;20886;-70
2023/09/25 10:55:34;;;;;;;2.80;2.40;;;21.40;99.90;;;;;;5027277;28;20528;-70
2023/09/25 10:58:02;;;;;;;3.30;2.47;;;21.50;99.90;;;;;;5025085;28;20481;-70
2023/09/25 11:00:29;;;;;;;2.93;2.63;;;21.80;99.90;;;;;;5023994;28;20897;-70
2023/09/25 11:02:57;;;;;;;3.27;2.43;;;21.80;99.90;;;;;;5023551;28;20477;-70
2023/09/25 11:05:24;;;;;;;3.73;3.33;;;21.40;99.90;;;;;;5023196;28;20979;-70
2023/09/25 11:07:50;;;;;;;4.97;3.80;;;21.30;99.90;;;;;;5023058;28;20854;-70
2023/09/25 11:10:17;;;;;;;3.30;2.67;;;21.10;99.90;;;;;;5019062;28;20528;-70
2023/09/25 11:12:47;;;;;;;3.90;2.80;;;21.20;99.90;;;;;;5026467;28;20842;-70
2023/09/25 11:15:17;;;;;;;3.20;3.00;;;21.40;99.90;;;;;;5021722;28;20443;-70
2023/09/25 11:17:45;;;;;;;2.87;2.57;;;21.70;99.90;;;;;;5019180;28;20512;-70
2023/09/25 11:20:15;;;;;;;2.90;2.53;;;22.00;99.90;;;;;;5020592;28;20450;-71
2023/09/25 11:22:42;;;;;;;5.40;3.00;;;22.10;99.90;;;;;;5021766;28;20485;-71
2023/09/25 11:25:14;;;;;;;8.63;2.40;;;21.80;99.90;;;;;;5023020;28;20547;-71
2023/09/25 11:27:51;;;;;;;4.00;2.80;;;22.00;99.90;;;;;;5022273;28;20515;-71
2023/09/25 11:30:16;;;;;;;5.40;2.80;;;22.30;99.90;;;;;;5021354;28;20967;-71
2023/09/25 11:32:43;;;;;;;2.90;2.70;;;22.20;99.90;;;;;;5023402;28;20500;-71
2023/09/25 11:35:12;;;;;;;2.50;2.30;;;22.20;99.90;;;;;;5022071;28;20253;-71
2023/09/25 11:37:57;;;;;;;2.70;2.50;;;22.30;99.90;;;;;;5016957;28;20536;-71
2023/09/25 11:40:24;;;;;;;3.50;2.57;;;22.30;99.90;;;;;;5022678;28;20544;-71
2023/09/25 11:42:51;;;;;;;3.17;2.70;;;22.10;99.90;;;;;;5015600;28;20473;-71
2023/09/25 11:45:18;;;;;;;6.20;3.27;;;22.20;99.90;;;;;;5015988;28;20505;-71
2023/09/25 11:47:45;;;;;;;4.90;2.60;;;22.40;99.90;;;;;;5017300;28;20450;-71
2023/09/25 11:50:13;;;;;;;2.40;2.20;;;22.60;99.90;;;;;;5011218;28;21592;-71
2023/09/25 11:52:41;;;;;;;7.67;3.27;;;22.20;99.90;;;;;;5020517;28;21006;-72
2023/09/25 11:55:10;;;;;;;4.80;2.70;;;22.20;99.90;;;;;;5022081;28;20525;-71
2023/09/25 11:57:37;;;;;;;2.50;2.30;;;22.20;99.90;;;;;;5020561;28;20536;-71
2023/09/25 12:00:05;;;;;;;3.80;2.73;;;22.20;99.90;;;;;;5022617;28;20457;-71
2023/09/25 12:02:32;;;;;;;4.30;3.07;;;22.00;99.90;;;;;;5016244;28;20502;-70
2023/09/25 12:04:59;;;;;;;2.73;2.50;;;22.30;99.90;;;;;;5012118;28;20482;-71
2023/09/25 12:07:26;;;;;;;4.13;2.80;;;22.20;99.90;;;;;;5013534;28;20454;-71
2023/09/25 12:09:55;;;;;;;3.03;2.83;;;21.90;99.90;;;;;;5023564;28;20454;-70
2023/09/25 12:12:23;;;;;;;4.27;3.00;;;21.70;99.90;;;;;;5018053;28;20500;-71
2023/09/25 12:14:49;;;;;;;11.03;2.97;;;21.90;99.90;;;;;;5024433;28;20935;-71
2023/09/25 12:17:16;;;;;;;3.50;2.97;;;22.10;99.90;;;;;;5021369;28;21238;-71
2023/09/25 12:19:43;;;;;;;3.83;2.80;;;22.10;99.90;;;;;;5016823;28;20472;-71
2023/09/25 12:22:09;;;;;;;2.93;2.60;;;22.00;99.90;;;;;;5016102;28;20478;-71
2023/09/25 12:24:36;;;;;;;4.17;2.80;;;22.20;99.90;;;;;;5020685;28;20458;-71
2023/09/25 12:27:04;;;;;;;3.33;2.63;;;22.60;99.90;;;;;;5020179;28;20590;-71
2023/09/25 12:29:30;;;;;;;3.67;2.53;;;22.60;99.90;;;;;;5019931;28;20849;-71
2023/09/25 12:31:57;;;;;;;3.37;2.40;;;22.60;99.90;;;;;;5013086;28;20478;-71
2023/09/25 12:34:24;;;;;;;4.73;2.60;;;22.60;99.90;;;;;;5019005;28;20513;-70
2023/09/25 12:36:50;;;;;;;2.87;2.53;;;22.70;99.90;;;;;;5013169;28;20450;-70
2023/09/25 12:39:17;;;;;;;3.03;2.20;;;22.50;99.90;;;;;;5020286;28;20872;-70
2023/09/25 12:41:44;;;;;;;2.63;2.03;;;22.70;99.90;;;;;;5021606;28;20561;-71
2023/09/25 12:44:12;;;;;;;2.90;2.40;;;22.90;99.90;;;;;;5004063;28;20501;-71
2023/09/25 12:46:39;;;;;;;2.50;2.27;;;23.10;99.90;;;;;;5023153;28;20489;-71
2023/09/25 12:49:05;;;;;;;3.40;2.37;;;23.00;99.90;;;;;;5020127;28;20952;-70
2023/09/25 12:51:32;;;;;;;7.27;2.37;;;22.80;99.90;;;;;;5015964;28;20510;-72